Pas de pilote en ligne...

Compagnie Fsx-France ! Un nouveau look pour votre VA, par : Julien & Co

 METAR ET TAF INFORMATION
METAR FOR EYVI :
EYVI 210420Z 26007KT CAVOK 14/08 Q1017 NOSIG

 AÉROPORT DE AÉROPORT

 INFORMATIONS DE PISTE
Piste 02 Longueur de la piste 2515 m = 8251 ft Largeur de la piste 50 m = 164 ft
Élévation de la piste 594 ft Seuil de la piste déplacés 0 ft Runway heading 22
Piste 20 Longueur de la piste 2515 m = 8251 ft Largeur de la piste 50 m = 164 ft
Élévation de la piste 646 ft Seuil de la piste déplacés 0 ft Runway heading 202
 AÉROPORT FRÉQUENCES
Type APP Nom APP Féquence 120.7 MHZ
Type ATIS Nom ATIS Féquence 125.8 MHZ
Type TWR Nom TWR Féquence 118.2 MHZ

 AIDES A LA NAVIGATION
Type NDB Nom Vilnius Féquence 385 KHZ
Type VOR-DME Nom Vilnius Féquence 113800 KHZ